createdAt,value
2022-11-14T00:00:03.921Z,7.10
2022-11-14T00:02:30.616Z,7.30
2022-11-14T00:04:57.859Z,7.44
2022-11-14T00:07:24.636Z,7.47
2022-11-14T00:09:51.367Z,7.37
2022-11-14T00:12:18.199Z,7.51
2022-11-14T00:14:45.326Z,7.51
2022-11-14T00:17:11.964Z,7.47
2022-11-14T00:19:39.155Z,7.47
2022-11-14T00:22:05.794Z,7.02
2022-11-14T00:24:32.542Z,6.71
2022-11-14T00:26:59.335Z,7.04
2022-11-14T00:29:26.005Z,7.17
2022-11-14T00:31:52.669Z,6.96
2022-11-14T00:34:19.741Z,7.00
2022-11-14T00:36:55.717Z,6.81
2022-11-14T00:39:24.863Z,7.30
2022-11-14T00:42:11.621Z,7.04
2022-11-14T00:44:43.005Z,6.96
2022-11-14T00:47:18.285Z,6.87
2022-11-14T00:49:47.180Z,6.77
2022-11-14T00:52:13.813Z,6.95
2022-11-14T00:54:40.498Z,7.09
2022-11-14T00:57:07.821Z,7.04
2022-11-14T00:59:34.596Z,6.96
2022-11-14T01:02:01.967Z,7.13
2022-11-14T01:04:48.610Z,6.34
2022-11-14T01:07:15.673Z,7.02
2022-11-14T01:09:42.498Z,6.46
2022-11-14T01:12:09.394Z,6.65
2022-11-14T01:14:36.035Z,6.46
2022-11-14T01:17:03.722Z,6.24
2022-11-14T01:19:30.381Z,6.34
2022-11-14T01:21:59.570Z,6.76
2022-11-14T01:24:28.518Z,6.30
2022-11-14T01:26:56.368Z,6.57
2022-11-14T01:29:23.532Z,7.04
2022-11-14T01:31:50.247Z,7.07
2022-11-14T01:34:17.349Z,6.96
2022-11-14T01:36:44.329Z,6.96
2022-11-14T01:39:11.143Z,6.75
2022-11-14T01:41:38.959Z,6.81
2022-11-14T01:44:16.286Z,6.27
2022-11-14T01:46:47.291Z,7.04
2022-11-14T01:49:35.929Z,7.31
2022-11-14T01:52:03.956Z,7.07
2022-11-14T01:54:32.933Z,7.25
2022-11-14T01:57:01.419Z,7.42
2022-11-14T01:59:31.500Z,7.47
2022-11-14T02:02:00.214Z,6.75
2022-11-14T02:04:29.162Z,7.13
2022-11-14T02:06:59.338Z,7.12
2022-11-14T02:09:26.426Z,6.94
2022-11-14T02:11:55.171Z,7.39
2022-11-14T02:14:22.015Z,7.67
2022-11-14T02:17:07.640Z,7.69
2022-11-14T02:19:49.027Z,7.87
2022-11-14T02:22:15.700Z,7.92
2022-11-14T02:24:43.005Z,7.81
2022-11-14T02:27:10.616Z,8.01
2022-11-14T02:29:37.896Z,7.62
2022-11-14T02:32:10.496Z,7.40
2022-11-14T02:34:48.607Z,6.97
2022-11-14T02:37:15.552Z,7.66
2022-11-14T02:39:42.670Z,7.85
2022-11-14T02:42:09.395Z,7.94
2022-11-14T02:44:36.220Z,7.79
2022-11-14T02:47:04.089Z,7.97
2022-11-14T02:49:32.161Z,7.96
2022-11-14T02:51:59.000Z,8.13
2022-11-14T02:54:25.933Z,8.13
2022-11-14T02:56:52.613Z,8.29
2022-11-14T02:59:19.772Z,7.99
2022-11-14T03:01:46.567Z,8.25
2022-11-14T03:04:13.307Z,8.35
2022-11-14T03:06:40.005Z,8.44
2022-11-14T03:09:07.706Z,8.57
2022-11-14T03:11:34.353Z,8.63
2022-11-14T03:14:01.313Z,8.74
2022-11-14T03:16:28.126Z,8.01
2022-11-14T03:18:55.978Z,8.30
2022-11-14T03:21:23.334Z,8.25
2022-11-14T03:24:09.993Z,8.60
2022-11-14T03:26:36.825Z,8.80
2022-11-14T03:29:20.991Z,8.49
2022-11-14T03:31:48.934Z,8.67
2022-11-14T03:34:16.012Z,8.73
2022-11-14T03:36:43.151Z,8.67
2022-11-14T03:39:09.901Z,8.02
2022-11-14T03:41:36.736Z,7.99
2022-11-14T03:44:03.558Z,8.85
2022-11-14T03:46:30.600Z,9.05
2022-11-14T03:48:57.411Z,9.20
2022-11-14T03:51:24.162Z,9.53
2022-11-14T03:53:51.016Z,8.61
2022-11-14T03:56:17.819Z,9.13
2022-11-14T03:58:44.542Z,8.82
2022-11-14T04:01:11.404Z,9.39
2022-11-14T04:03:38.172Z,9.40
2022-11-14T04:06:05.011Z,8.34
2022-11-14T04:08:32.081Z,9.12
2022-11-14T04:10:59.276Z,9.22
2022-11-14T04:13:26.350Z,9.05
2022-11-14T04:15:59.261Z,9.13
2022-11-14T04:18:26.472Z,8.56
2022-11-14T04:20:53.302Z,8.31
2022-11-14T04:23:20.348Z,8.31
2022-11-14T04:25:47.512Z,8.82
2022-11-14T04:28:14.450Z,8.35
2022-11-14T04:30:41.217Z,8.38
2022-11-14T04:33:07.886Z,8.19
2022-11-14T04:35:34.645Z,7.91
2022-11-14T04:38:01.316Z,8.05
2022-11-14T04:40:28.003Z,7.93
2022-11-14T04:42:54.645Z,7.99
2022-11-14T04:45:21.393Z,7.11
2022-11-14T04:47:48.051Z,7.73
2022-11-14T04:50:14.664Z,7.39
2022-11-14T04:52:41.486Z,7.83
2022-11-14T04:55:08.584Z,7.35
2022-11-14T04:57:35.359Z,7.44
2022-11-14T05:00:02.088Z,7.42
2022-11-14T05:02:30.844Z,7.43
2022-11-14T05:04:57.780Z,7.23
2022-11-14T05:07:24.861Z,7.36
2022-11-14T05:09:51.711Z,7.32
2022-11-14T05:12:18.491Z,7.40
2022-11-14T05:14:45.499Z,7.60
2022-11-14T05:17:12.439Z,7.57
2022-11-14T05:19:39.219Z,7.07
2022-11-14T05:22:05.895Z,7.26
2022-11-14T05:24:32.735Z,7.25
2022-11-14T05:26:59.631Z,7.58
2022-11-14T05:29:26.372Z,7.84
2022-11-14T05:31:53.209Z,7.64
2022-11-14T05:34:19.899Z,7.66
2022-11-14T05:36:46.800Z,7.68
2022-11-14T05:39:13.525Z,7.62
2022-11-14T05:41:40.493Z,7.63
2022-11-14T05:44:07.394Z,7.96
2022-11-14T05:46:34.184Z,7.43
2022-11-14T05:49:00.965Z,7.52
2022-11-14T05:51:27.745Z,7.39
2022-11-14T05:53:55.643Z,7.91
2022-11-14T05:56:22.409Z,7.95
2022-11-14T05:58:49.240Z,7.58
2022-11-14T06:01:17.076Z,7.05
2022-11-14T06:03:45.187Z,7.79
2022-11-14T06:06:13.317Z,7.62
2022-11-14T06:08:40.357Z,7.75
2022-11-14T06:11:08.635Z,7.09
2022-11-14T06:13:35.801Z,7.57
2022-11-14T06:16:03.699Z,7.40
2022-11-14T06:18:31.230Z,7.13
2022-11-14T06:21:02.218Z,7.48
2022-11-14T06:23:29.462Z,7.81
2022-11-14T06:26:00.154Z,7.61
2022-11-14T06:28:27.170Z,7.60
2022-11-14T06:31:00.417Z,7.57
2022-11-14T06:33:34.360Z,6.88
2022-11-14T06:36:01.989Z,7.40
2022-11-14T06:38:30.929Z,6.86
2022-11-14T06:41:11.572Z,6.98
2022-11-14T06:43:40.005Z,6.63
2022-11-14T06:46:26.848Z,6.98
2022-11-14T06:48:55.007Z,6.85
2022-11-14T06:51:22.016Z,7.11
2022-11-14T06:53:50.848Z,7.13
2022-11-14T06:56:20.484Z,6.97
2022-11-14T06:59:07.340Z,6.77
2022-11-14T07:01:34.168Z,6.72
2022-11-14T07:04:20.900Z,7.16
2022-11-14T07:06:47.756Z,6.98
2022-11-14T07:09:19.954Z,7.01
2022-11-14T07:11:48.967Z,6.78
2022-11-14T07:14:15.973Z,6.98
2022-11-14T07:16:42.761Z,7.17
2022-11-14T07:19:10.267Z,7.35
2022-11-14T07:21:37.375Z,7.18
2022-11-14T07:24:04.671Z,7.30
2022-11-14T07:26:32.119Z,7.27
2022-11-14T07:29:02.825Z,7.07
2022-11-14T07:31:31.102Z,7.12
2022-11-14T07:34:02.066Z,7.04
2022-11-14T07:36:29.050Z,7.41
2022-11-14T07:38:56.471Z,7.10
2022-11-14T07:41:23.555Z,7.57
2022-11-14T07:43:50.565Z,7.20
2022-11-14T07:46:18.370Z,7.59
2022-11-14T07:48:46.283Z,7.36
2022-11-14T07:51:17.873Z,7.77
2022-11-14T07:53:48.887Z,7.28
2022-11-14T07:58:51.884Z,7.48
2022-11-14T08:01:38.771Z,7.36
2022-11-14T08:04:10.984Z,7.38
2022-11-14T08:06:40.321Z,7.38
2022-11-14T08:09:07.254Z,7.25
2022-11-14T08:11:49.393Z,7.34
2022-11-14T08:14:16.664Z,7.54
2022-11-14T08:16:43.542Z,7.46
2022-11-14T08:19:33.503Z,7.52
2022-11-14T08:22:02.962Z,7.34
2022-11-14T08:24:29.864Z,7.44
2022-11-14T08:26:56.753Z,7.92
2022-11-14T08:29:25.882Z,7.74
2022-11-14T08:32:00.094Z,7.68
2022-11-14T08:34:29.443Z,7.62
2022-11-14T08:36:58.603Z,7.91
2022-11-14T08:39:25.441Z,7.95
2022-11-14T08:41:52.363Z,8.47
2022-11-14T08:44:19.321Z,7.93
2022-11-14T08:46:46.161Z,8.04
2022-11-14T08:49:15.795Z,7.82
2022-11-14T08:52:08.535Z,8.11
2022-11-14T08:54:39.676Z,7.92
2022-11-14T08:57:08.773Z,7.95
2022-11-14T08:59:35.760Z,8.38
2022-11-14T09:02:02.785Z,7.74
2022-11-14T09:04:29.851Z,8.10
2022-11-14T09:07:06.339Z,8.20
2022-11-14T09:09:37.534Z,7.32
2022-11-14T09:12:04.511Z,8.18
2022-11-14T09:14:31.343Z,7.84
2022-11-14T09:17:01.821Z,7.70
2022-11-14T09:19:33.881Z,8.09
2022-11-14T09:22:00.784Z,7.76
2022-11-14T09:24:32.393Z,8.17
2022-11-14T09:27:02.961Z,8.58
2022-11-14T09:29:29.896Z,8.71
2022-11-14T09:31:57.455Z,8.59
2022-11-14T09:34:24.474Z,8.96
2022-11-14T09:36:52.384Z,8.23
2022-11-14T09:39:19.207Z,8.47
2022-11-14T09:41:57.762Z,8.22
2022-11-14T09:44:29.973Z,8.59
2022-11-14T09:47:00.363Z,8.69
2022-11-14T09:49:36.723Z,9.28
2022-11-14T09:52:27.285Z,8.87
2022-11-14T09:54:58.581Z,8.49
2022-11-14T09:57:26.423Z,8.72
2022-11-14T09:59:56.614Z,9.40
2022-11-14T10:02:46.803Z,9.37
2022-11-14T10:05:22.921Z,9.38
2022-11-14T10:07:49.865Z,8.74
2022-11-14T10:10:38.911Z,9.25
2022-11-14T10:13:14.363Z,9.43
2022-11-14T10:15:44.044Z,9.88
2022-11-14T10:18:33.779Z,9.42
2022-11-14T10:21:25.679Z,9.47
2022-11-14T10:23:58.897Z,9.28
2022-11-14T10:26:33.444Z,9.43
2022-11-14T10:29:24.975Z,9.34
2022-11-14T10:32:10.718Z,9.55
2022-11-14T10:34:48.245Z,9.61
2022-11-14T10:37:25.272Z,9.87
2022-11-14T10:39:54.344Z,9.14
2022-11-14T10:42:33.066Z,9.00
2022-11-14T10:45:02.777Z,9.42
2022-11-14T10:47:33.863Z,9.41
2022-11-14T10:50:07.313Z,9.57
2022-11-14T10:52:39.873Z,9.71
2022-11-14T10:55:18.737Z,9.53
2022-11-14T10:57:46.203Z,9.79
2022-11-14T11:00:15.953Z,9.80
2022-11-14T11:02:51.933Z,9.70
2022-11-14T11:05:21.554Z,9.95
2022-11-14T11:11:17.894Z,10.02
2022-11-14T11:13:56.007Z,9.98
2022-11-14T11:16:24.733Z,10.14
2022-11-14T11:19:00.014Z,9.91
2022-11-14T11:21:26.906Z,9.59
2022-11-14T11:23:57.878Z,9.99
2022-11-14T11:26:28.936Z,10.08
2022-11-14T11:29:03.218Z,10.24
2022-11-14T11:31:49.351Z,10.65
2022-11-14T11:34:18.412Z,11.02
2022-11-14T11:36:48.871Z,10.27
2022-11-14T11:39:24.073Z,10.72
2022-11-14T11:42:08.688Z,10.14
2022-11-14T11:44:43.589Z,10.37
2022-11-14T11:47:13.815Z,10.80
2022-11-14T11:49:46.317Z,10.10
2022-11-14T11:52:24.382Z,10.03
2022-11-14T11:54:54.349Z,10.04
2022-11-14T11:57:26.922Z,10.78
2022-11-14T12:00:01.171Z,10.29
2022-11-14T12:02:28.845Z,10.41
2022-11-14T12:04:56.813Z,10.21
2022-11-14T12:07:42.122Z,10.40
2022-11-14T12:10:22.551Z,10.12
2022-11-14T12:13:03.996Z,10.07
2022-11-14T12:15:34.682Z,10.14
2022-11-14T12:18:25.996Z,9.71
2022-11-14T12:21:13.012Z,10.16
2022-11-14T12:23:58.693Z,10.17
2022-11-14T12:26:25.462Z,10.58
2022-11-14T12:29:02.921Z,10.24
2022-11-14T12:31:33.631Z,10.96
2022-11-14T12:34:06.120Z,10.87
2022-11-14T12:36:35.092Z,10.83
2022-11-14T12:39:02.633Z,10.16
2022-11-14T12:41:31.492Z,10.26
2022-11-14T12:44:18.871Z,9.93
2022-11-14T12:47:04.775Z,9.78
2022-11-14T12:49:52.901Z,8.97
2022-11-14T12:52:38.403Z,9.09
2022-11-14T12:55:05.383Z,9.28
2022-11-14T12:57:50.371Z,9.10
2022-11-14T13:00:17.972Z,9.60
2022-11-14T13:02:53.454Z,9.05
2022-11-14T13:05:31.822Z,9.23
2022-11-14T13:08:18.813Z,9.59
2022-11-14T13:10:46.686Z,9.66
2022-11-14T13:13:33.328Z,9.41
2022-11-14T13:16:24.463Z,9.00
2022-11-14T13:19:14.718Z,9.68
2022-11-14T13:22:01.549Z,9.26
2022-11-14T13:24:58.781Z,9.38
2022-11-14T13:27:45.206Z,8.86
2022-11-14T13:30:15.888Z,9.50
2022-11-14T13:32:42.593Z,9.40
2022-11-14T13:35:35.618Z,9.97
2022-11-14T13:38:21.312Z,9.30
2022-11-14T13:40:48.145Z,9.26
2022-11-14T13:43:18.043Z,9.49
2022-11-14T13:45:49.395Z,9.80
2022-11-14T13:48:16.183Z,9.94
2022-11-14T13:50:47.930Z,9.80
2022-11-14T13:53:16.768Z,9.67
2022-11-14T13:56:06.314Z,9.60
2022-11-14T13:58:35.894Z,10.17
2022-11-14T14:01:02.782Z,9.42
2022-11-14T14:03:38.655Z,9.60
2022-11-14T14:06:06.117Z,9.71
2022-11-14T14:08:44.755Z,9.36
2022-11-14T14:11:30.387Z,9.40
2022-11-14T14:14:20.573Z,9.69
2022-11-14T14:16:52.948Z,9.14
2022-11-14T14:19:34.666Z,9.03
2022-11-14T14:22:03.715Z,8.77
2022-11-14T14:24:31.493Z,9.22
2022-11-14T14:27:08.855Z,8.85
2022-11-14T14:29:50.516Z,9.33
2022-11-14T14:32:18.567Z,9.70
2022-11-14T14:34:45.931Z,9.22
2022-11-14T14:37:23.364Z,8.96
2022-11-14T14:40:00.380Z,9.43
2022-11-14T14:42:35.225Z,8.93
2022-11-14T14:45:03.446Z,8.79
2022-11-14T14:47:35.424Z,9.47
2022-11-14T14:50:03.292Z,9.43
2022-11-14T14:52:34.192Z,9.03
2022-11-14T14:55:03.899Z,9.42
2022-11-14T14:57:30.824Z,8.94
2022-11-14T15:00:04.019Z,9.57
2022-11-14T15:02:31.134Z,9.33
2022-11-14T15:04:59.623Z,9.20
2022-11-14T15:07:31.045Z,9.22
2022-11-14T15:10:02.536Z,9.30
2022-11-14T15:12:30.793Z,8.96
2022-11-14T15:14:58.824Z,9.07
2022-11-14T15:17:30.405Z,8.77
2022-11-14T15:20:00.922Z,8.79
2022-11-14T15:22:29.886Z,9.27
2022-11-14T15:25:12.002Z,8.61
2022-11-14T15:27:46.535Z,8.90
2022-11-14T15:30:27.606Z,9.00
2022-11-14T15:33:01.957Z,8.99
2022-11-14T15:35:28.973Z,9.25
2022-11-14T15:38:41.934Z,9.66
2022-11-14T15:41:17.093Z,9.30
2022-11-14T15:43:50.913Z,9.85
2022-11-14T15:46:36.151Z,9.65
2022-11-14T15:49:15.014Z,9.75
2022-11-14T15:51:44.822Z,9.92
2022-11-14T15:54:24.054Z,9.15
2022-11-14T15:56:51.523Z,9.10
2022-11-14T15:59:18.506Z,9.02
2022-11-14T16:01:46.982Z,8.84
2022-11-14T16:04:18.604Z,8.79
2022-11-14T16:06:45.451Z,9.14
2022-11-14T16:09:16.913Z,9.55
2022-11-14T16:11:44.041Z,9.60
2022-11-14T16:14:11.041Z,9.37
2022-11-14T16:16:37.808Z,9.75
2022-11-14T16:19:04.954Z,9.10
2022-11-14T16:21:31.755Z,8.98
2022-11-14T16:23:58.522Z,9.68
2022-11-14T16:26:28.118Z,9.08
2022-11-14T16:28:55.071Z,9.39
2022-11-14T16:31:22.114Z,8.89
2022-11-14T16:33:48.813Z,8.70
2022-11-14T16:36:15.630Z,9.07
2022-11-14T16:38:42.359Z,8.39
2022-11-14T16:41:10.643Z,8.69
2022-11-14T16:43:37.325Z,8.25
2022-11-14T16:46:05.793Z,8.70
2022-11-14T16:48:33.045Z,9.24
2022-11-14T16:51:14.976Z,9.54
2022-11-14T16:53:48.119Z,9.30
2022-11-14T16:56:14.914Z,8.91
2022-11-14T16:58:42.276Z,9.69
2022-11-14T17:01:17.437Z,9.99
2022-11-14T17:03:47.813Z,8.79
2022-11-14T17:06:15.133Z,8.66
2022-11-14T17:08:41.858Z,9.67
2022-11-14T17:11:10.406Z,8.40
2022-11-14T17:13:37.905Z,8.32
2022-11-14T17:16:05.071Z,8.71
2022-11-14T17:18:38.180Z,9.13
2022-11-14T17:21:06.712Z,8.75
2022-11-14T17:23:33.967Z,8.84
2022-11-14T17:26:07.542Z,8.55
2022-11-14T17:28:34.445Z,9.02
2022-11-14T17:31:07.075Z,9.11
2022-11-14T17:33:34.170Z,9.16
2022-11-14T17:36:08.826Z,8.85
2022-11-14T17:38:36.797Z,9.00
2022-11-14T17:41:06.883Z,9.13
2022-11-14T17:43:38.620Z,9.24
2022-11-14T17:46:09.846Z,9.12
2022-11-14T17:48:41.713Z,9.21
2022-11-14T17:51:11.015Z,9.48
2022-11-14T17:53:37.945Z,9.44
2022-11-14T17:56:04.845Z,9.39
2022-11-14T17:58:32.212Z,8.78
2022-11-14T18:00:59.205Z,8.79
2022-11-14T18:03:26.794Z,9.36
2022-11-14T18:05:53.714Z,9.24
2022-11-14T18:08:20.432Z,9.28
2022-11-14T18:10:47.115Z,9.35
2022-11-14T18:13:13.795Z,9.49
2022-11-14T18:15:47.713Z,9.29
2022-11-14T18:18:14.983Z,9.24
2022-11-14T18:20:42.042Z,9.53
2022-11-14T18:23:08.843Z,9.68
2022-11-14T18:25:35.615Z,9.12
2022-11-14T18:28:02.272Z,9.35
2022-11-14T18:30:41.071Z,9.45
2022-11-14T18:33:08.691Z,9.40
2022-11-14T18:35:35.356Z,9.88
2022-11-14T18:38:02.714Z,10.19
2022-11-14T18:40:29.483Z,10.30
2022-11-14T18:42:56.530Z,10.36
2022-11-14T18:45:23.493Z,10.33
2022-11-14T18:47:50.542Z,10.26
2022-11-14T18:50:17.332Z,10.69
2022-11-14T18:52:44.033Z,10.64
2022-11-14T18:55:11.027Z,10.74
2022-11-14T18:57:39.504Z,10.62
2022-11-14T19:00:06.593Z,11.00
2022-11-14T19:02:33.408Z,10.88
2022-11-14T19:05:00.181Z,10.53
2022-11-14T19:07:26.957Z,10.46
2022-11-14T19:09:54.396Z,9.67
2022-11-14T19:12:23.608Z,9.82
2022-11-14T19:14:54.084Z,9.62
2022-11-14T19:17:21.235Z,10.01
2022-11-14T19:19:48.913Z,9.92
2022-11-14T19:22:16.171Z,9.86
2022-11-14T19:24:45.286Z,9.80
2022-11-14T19:27:12.393Z,9.77
2022-11-14T19:29:39.094Z,9.88
2022-11-14T19:32:06.393Z,10.17
2022-11-14T19:34:33.161Z,10.05
2022-11-14T19:37:01.203Z,9.74
2022-11-14T19:39:29.375Z,9.89
2022-11-14T19:41:56.119Z,9.81
2022-11-14T19:44:22.954Z,9.99
2022-11-14T19:46:49.967Z,10.32
2022-11-14T19:49:16.723Z,10.54
2022-11-14T19:51:43.475Z,10.66
2022-11-14T19:54:11.135Z,10.60
2022-11-14T19:56:37.954Z,10.71
2022-11-14T19:59:11.036Z,10.81
2022-11-14T20:01:42.445Z,10.88
2022-11-14T20:04:11.435Z,10.94
2022-11-14T20:06:38.133Z,10.18
2022-11-14T20:09:06.572Z,9.97
2022-11-14T20:11:34.114Z,9.94
2022-11-14T20:14:01.473Z,9.92
2022-11-14T20:16:29.852Z,10.51
2022-11-14T20:18:59.357Z,9.98
2022-11-14T20:21:27.270Z,9.84
2022-11-14T20:23:54.513Z,9.56
2022-11-14T20:26:21.527Z,10.14
2022-11-14T20:28:50.884Z,9.95
2022-11-14T20:31:18.869Z,10.07
2022-11-14T20:33:47.023Z,10.31
2022-11-14T20:36:15.274Z,10.46
2022-11-14T20:38:42.613Z,10.36
2022-11-14T20:41:09.692Z,10.26
2022-11-14T20:43:36.481Z,9.99
2022-11-14T20:46:07.632Z,10.41
2022-11-14T20:48:34.562Z,9.99
2022-11-14T20:51:02.833Z,9.86
2022-11-14T20:53:30.169Z,9.44
2022-11-14T20:55:57.174Z,9.36
2022-11-14T20:58:24.330Z,9.87
2022-11-14T21:00:51.423Z,10.08
2022-11-14T21:03:18.224Z,9.57
2022-11-14T21:05:45.113Z,9.85
2022-11-14T21:08:14.484Z,9.98
2022-11-14T21:10:47.838Z,9.90
2022-11-14T21:13:33.617Z,9.66
2022-11-14T21:16:01.123Z,9.57
2022-11-14T21:18:28.565Z,9.62
2022-11-14T21:21:02.762Z,9.45
2022-11-14T21:23:29.837Z,9.57
2022-11-14T21:26:11.154Z,9.53
2022-11-14T21:28:39.127Z,9.58
2022-11-14T21:31:22.880Z,9.05
2022-11-14T21:33:50.513Z,9.19
2022-11-14T21:39:04.677Z,9.24
2022-11-14T21:41:31.685Z,9.16
2022-11-14T21:44:00.274Z,8.87
2022-11-14T21:46:27.704Z,9.55
2022-11-14T21:48:55.420Z,9.72
2022-11-14T21:51:26.752Z,9.72
2022-11-14T21:53:54.646Z,9.23
2022-11-14T21:56:22.623Z,9.54
2022-11-14T21:58:49.555Z,9.08
2022-11-14T22:01:38.039Z,9.57
2022-11-14T22:04:14.354Z,9.94
2022-11-14T22:06:42.875Z,9.77
2022-11-14T22:09:10.263Z,9.75
2022-11-14T22:11:40.330Z,9.77
2022-11-14T22:14:07.524Z,9.82
2022-11-14T22:16:35.784Z,9.39
2022-11-14T22:19:05.528Z,9.10
2022-11-14T22:21:32.634Z,9.18
2022-11-14T22:23:59.523Z,9.30
2022-11-14T22:26:26.252Z,9.21
2022-11-14T22:28:53.003Z,9.36
2022-11-14T22:31:21.012Z,8.58
2022-11-14T22:33:48.963Z,9.51
2022-11-14T22:36:17.023Z,9.85
2022-11-14T22:38:44.163Z,10.05
2022-11-14T22:41:21.284Z,9.67
2022-11-14T22:43:48.344Z,10.04
2022-11-14T22:46:15.798Z,9.62
2022-11-14T22:48:43.592Z,9.90
2022-11-14T22:51:14.471Z,8.95
2022-11-14T22:53:41.283Z,9.06
2022-11-14T22:56:08.994Z,9.52
2022-11-14T22:58:38.063Z,9.38
2022-11-14T23:01:14.993Z,9.06
2022-11-14T23:03:41.992Z,9.27
2022-11-14T23:06:09.425Z,8.85
2022-11-14T23:08:36.230Z,9.35
2022-11-14T23:11:07.362Z,9.40
2022-11-14T23:13:40.973Z,9.52
2022-11-14T23:16:14.951Z,9.88
2022-11-14T23:18:42.135Z,9.40
2022-11-14T23:21:30.396Z,9.34
2022-11-14T23:23:58.674Z,9.27
2022-11-14T23:26:26.051Z,8.79
2022-11-14T23:28:53.204Z,8.64
2022-11-14T23:31:23.385Z,8.78
2022-11-14T23:33:50.794Z,9.28
2022-11-14T23:36:18.186Z,9.22
2022-11-14T23:38:45.122Z,9.28
2022-11-14T23:41:17.123Z,9.21
2022-11-14T23:43:43.893Z,9.07
2022-11-14T23:46:11.103Z,8.93
2022-11-14T23:48:37.876Z,9.62
2022-11-14T23:51:04.604Z,9.49
2022-11-14T23:53:31.584Z,9.27
2022-11-14T23:55:59.704Z,8.85
2022-11-14T23:58:27.162Z,9.18
